Time;durP1;ratioP1;P1;durP2;ratioP2;P2;SDS_P1;SDS_P2;PMS_P1;PMS_P2;Temp;Humidity;BMP_temperature;BMP_pressure;BME280_temperature;BME280_humidity;BME280_pressure;Samples;Min_cycle;Max_cycle;Signal;HPM_P1;HPM_P2
2021/10/17 00:01:02;;;;;;;3.05;2.95;;;;;;;4.36;89.61;99708.00;4841411;29;20425;-74
2021/10/17 00:03:28;;;;;;;3.15;2.63;;;;;;;4.33;89.39;99717.56;4841694;29;20058;-73
2021/10/17 00:05:54;;;;;;;2.85;2.75;;;;;;;4.39;89.28;99709.63;4825258;29;20561;-73
2021/10/17 00:08:21;;;;;;;2.83;2.72;;;;;;;4.36;89.31;99714.91;4841919;29;20057;-73
2021/10/17 00:10:47;;;;;;;3.92;3.67;;;;;;;4.43;89.79;99716.41;4843346;29;20054;-74
2021/10/17 00:13:16;;;;;;;3.17;2.97;;;;;;;4.42;89.19;99706.94;4824861;29;20057;-73
2021/10/17 00:15:42;;;;;;;12.73;3.53;;;;;;;4.35;89.41;99705.47;4841503;29;20140;-73
2021/10/17 00:18:08;;;;;;;10.88;4.53;;;;;;;4.43;89.59;99711.22;4824962;29;20546;-74
2021/10/17 00:20:34;;;;;;;1.98;1.98;;;;;;;4.46;88.90;99716.28;4810151;29;20616;-72
2021/10/17 00:23:01;;;;;;;3.42;3.33;;;;;;;4.34;89.18;99708.94;4841181;29;20256;-73
2021/10/17 00:25:27;;;;;;;4.28;3.97;;;;;;;4.36;88.99;99709.72;4841499;29;20061;-72
2021/10/17 00:27:53;;;;;;;3.30;3.10;;;;;;;4.33;89.18;99717.56;4824746;29;20057;-72
2021/10/17 00:30:30;;;;;;;2.20;1.90;;;;;;;4.30;89.23;99712.50;4824741;29;20171;-73
2021/10/17 00:32:56;;;;;;;1.55;1.45;;;;;;;4.33;89.62;99713.25;4809235;29;20185;-72
2021/10/17 00:35:22;;;;;;;3.50;3.35;;;;;;;4.35;88.90;99715.81;4840123;29;20121;-73
2021/10/17 00:37:48;;;;;;;2.30;2.20;;;;;;;4.37;89.01;99714.00;4840709;29;20093;-73
2021/10/17 00:40:16;;;;;;;3.40;3.17;;;;;;;4.35;89.33;99720.97;4840909;29;20088;-72
2021/10/17 00:42:43;;;;;;;3.05;2.40;;;;;;;4.35;89.43;99715.81;4824298;29;20081;-73
2021/10/17 00:45:14;;;;;;;1.38;1.33;;;;;;;4.30;89.32;99715.09;4824541;29;20057;-72
2021/10/17 00:47:40;;;;;;;;;;;;;;;4.34;89.06;99714.09;4824321;29;20504;-72
2021/10/17 00:50:06;;;;;;;2.08;1.98;;;;;;;4.27;89.11;99717.78;4840471;29;19931;-73
2021/10/17 00:52:34;;;;;;;3.13;2.92;;;;;;;4.25;89.12;99728.19;4824161;29;20062;-72
2021/10/17 00:54:59;;;;;;;1.77;1.67;;;;;;;4.25;88.92;99715.25;4824260;29;20068;-73
2021/10/17 00:57:25;;;;;;;3.42;3.22;;;;;;;4.27;89.20;99723.78;4840694;29;20485;-72
2021/10/17 00:59:51;;;;;;;2.53;2.13;;;;;;;4.12;88.87;99714.78;4808889;29;20160;-73
2021/10/17 01:02:18;;;;;;;3.50;3.20;;;;;;;4.13;89.55;99723.38;4838066;29;20057;-72
2021/10/17 01:04:44;;;;;;;2.05;1.95;;;;;;;4.08;89.71;99718.38;4842350;29;20053;-72
2021/10/17 01:07:10;;;;;;;4.13;3.72;;;;;;;4.01;89.76;99710.84;4842533;29;20534;-71
2021/10/17 01:09:37;;;;;;;7.05;3.53;;;;;;;4.05;89.93;99717.59;4842466;29;20076;-71
2021/10/17 01:12:07;;;;;;;2.45;2.35;;;;;;;4.04;89.62;99714.19;4827300;29;20085;-71
2021/10/17 01:14:34;;;;;;;2.97;2.78;;;;;;;4.05;89.57;99722.78;4812098;29;20121;-73
2021/10/17 01:17:00;;;;;;;3.42;3.13;;;;;;;4.02;90.13;99717.72;4842025;29;20049;-73
2021/10/17 01:19:26;;;;;;;3.55;3.35;;;;;;;4.03;89.61;99719.38;4842111;29;20056;-70
2021/10/17 01:22:04;;;;;;;2.75;2.55;;;;;;;4.06;90.25;99720.13;4841972;29;20140;-72
2021/10/17 01:24:31;;;;;;;3.53;1.95;;;;;;;4.01;89.49;99726.34;4842128;29;20057;-72
2021/10/17 01:26:56;;;;;;;3.47;3.22;;;;;;;4.01;89.95;99716.84;4858360;29;20055;-73
2021/10/17 01:29:23;;;;;;;2.75;2.65;;;;;;;3.98;89.93;99716.94;4858546;29;20508;-72
2021/10/17 01:31:53;;;;;;;3.28;2.97;;;;;;;3.97;89.84;99715.25;4826535;29;20053;-74
2021/10/17 01:34:22;;;;;;;3.95;3.45;;;;;;;3.95;89.58;99717.06;4826625;29;20041;-71
2021/10/17 01:36:48;;;;;;;2.80;2.60;;;;;;;3.93;90.24;99712.78;4858150;29;20057;-72
2021/10/17 01:39:17;;;;;;;2.63;2.53;;;;;;;3.90;90.09;99710.31;4826825;29;20049;-71
2021/10/17 01:41:43;;;;;;;3.08;2.92;;;;;;;3.93;89.63;99718.81;4841884;29;20053;-72
2021/10/17 01:44:11;;;;;;;3.45;3.25;;;;;;;3.92;89.48;99705.97;4858279;29;20065;-72
2021/10/17 01:46:37;;;;;;;1.55;1.55;;;;;;;3.97;89.88;99710.09;4811557;29;20064;-72
2021/10/17 01:49:06;;;;;;;5.05;2.90;;;;;;;3.96;89.64;99705.81;4858022;29;20505;-73
2021/10/17 01:51:36;;;;;;;2.20;2.13;;;;;;;3.94;89.92;99699.84;4841560;29;20061;-72
2021/10/17 01:54:04;;;;;;;3.17;3.00;;;;;;;3.94;89.19;99697.28;4826444;29;20473;-72
2021/10/17 01:56:31;;;;;;;2.00;1.90;;;;;;;3.97;89.37;99709.25;4858033;29;20049;-71
2021/10/17 01:58:57;;;;;;;4.00;3.60;;;;;;;3.97;89.38;99709.25;4857769;29;20053;-71
2021/10/17 02:01:24;;;;;;;2.17;2.08;;;;;;;3.87;89.38;99708.66;4825381;29;20057;-72
2021/10/17 02:03:50;;;;;;;3.33;2.33;;;;;;;3.86;89.83;99699.22;4841180;29;20069;-73
2021/10/17 02:06:16;;;;;;;2.67;2.47;;;;;;;3.81;89.23;99703.69;4858094;29;20129;-73
2021/10/17 02:08:44;;;;;;;3.60;3.40;;;;;;;3.80;90.15;99699.41;4826654;29;20061;-72
2021/10/17 02:11:10;;;;;;;2.22;2.13;;;;;;;3.79;89.93;99702.06;4841022;29;20065;-73
2021/10/17 02:13:36;;;;;;;3.08;1.52;;;;;;;3.81;89.71;99693.38;4842562;29;20540;-73
2021/10/17 02:16:02;;;;;;;2.00;1.90;;;;;;;3.76;90.11;99690.09;4842739;29;20053;-72
2021/10/17 02:18:28;;;;;;;1.60;1.60;;;;;;;3.81;89.99;99701.13;4826590;29;20084;-72
2021/10/17 02:20:55;;;;;;;5.45;3.65;;;;;;;3.75;89.70;99685.81;4841330;29;20054;-73
2021/10/17 02:23:21;;;;;;;3.88;2.15;;;;;;;3.76;89.98;99684.09;4826832;29;20084;-73
2021/10/17 02:25:51;;;;;;;4.38;3.05;;;;;;;3.77;89.93;99688.34;4828833;29;20200;-72
2021/10/17 02:28:21;;;;;;;2.65;2.38;;;;;;;3.78;90.03;99690.88;4832880;29;20053;-74
2021/10/17 02:30:51;;;;;;;2.53;2.42;;;;;;;3.81;89.84;99688.22;4829688;29;20536;-74
2021/10/17 02:33:22;;;;;;;16.65;4.25;;;;;;;3.76;89.51;99684.94;4828843;29;20063;-72
2021/10/17 02:35:48;;;;;;;2.25;2.25;;;;;;;3.76;89.98;99684.94;4825940;29;20144;-75
2021/10/17 02:38:14;;;;;;;4.43;3.55;;;;;;;3.75;90.00;99680.66;4841067;29;20053;-74
2021/10/17 02:40:40;;;;;;;4.15;3.17;;;;;;;3.75;89.82;99685.81;4795922;29;20073;-73
2021/10/17 02:43:10;;;;;;;2.58;2.45;;;;;;;3.72;89.88;99674.72;4826037;29;20086;-71
2021/10/17 02:45:36;;;;;;;1.85;1.75;;;;;;;3.76;89.50;99679.78;4825981;29;20049;-72
2021/10/17 02:48:02;;;;;;;2.15;2.05;;;;;;;3.70;90.15;99674.75;4825640;29;20060;-72
2021/10/17 02:50:30;;;;;;;3.65;3.45;;;;;;;3.72;90.28;99683.31;4840676;29;20049;-74
2021/10/17 02:52:56;;;;;;;1.45;1.45;;;;;;;3.71;89.83;99681.63;4825389;29;20057;-72
2021/10/17 02:55:25;;;;;;;2.20;2.00;;;;;;;3.70;90.23;99672.19;4840911;29;20485;-72
2021/10/17 02:57:52;;;;;;;2.60;2.47;;;;;;;3.66;89.98;99668.84;4825238;29;20094;-72
2021/10/17 03:00:19;;;;;;;4.10;3.72;;;;;;;3.63;90.55;99662.97;4840606;29;20057;-73
2021/10/17 03:02:48;;;;;;;3.50;3.38;;;;;;;3.65;90.56;99661.16;4840528;29;20166;-72
2021/10/17 03:05:15;;;;;;;3.53;3.25;;;;;;;3.65;90.07;99661.16;4825557;29;20124;-72
2021/10/17 03:07:41;;;;;;;3.80;3.58;;;;;;;3.64;90.35;99654.31;4840562;29;20061;-72
2021/10/17 03:10:08;;;;;;;3.80;3.63;;;;;;;3.58;90.03;99662.22;4840416;29;20117;-70
2021/10/17 03:12:34;;;;;;;5.18;3.35;;;;;;;3.60;90.42;99663.03;4828042;29;20072;-72
2021/10/17 03:15:04;;;;;;;3.63;3.38;;;;;;;3.58;90.48;99655.34;4844263;29;20128;-72
2021/10/17 03:17:31;;;;;;;4.30;4.00;;;;;;;3.66;90.25;99657.72;4829233;29;20053;-72
2021/10/17 03:19:57;;;;;;;2.28;2.17;;;;;;;3.63;89.79;99668.13;4844197;29;20575;-71
2021/10/17 03:22:31;;;;;;;3.95;3.70;;;;;;;3.55;90.61;99657.16;4844265;29;20076;-72
2021/10/17 03:24:57;;;;;;;1.38;1.38;;;;;;;3.56;89.89;99666.59;4844127;29;20165;-71
2021/10/17 03:27:23;;;;;;;2.35;2.25;;;;;;;3.53;90.01;99666.69;4844256;29;20045;-73
2021/10/17 03:29:54;;;;;;;2.78;2.58;;;;;;;3.57;90.14;99669.13;4844091;29;20060;-72
2021/10/17 03:32:20;;;;;;;4.05;3.83;;;;;;;3.57;90.11;99673.44;4843923;29;20053;-72
2021/10/17 03:34:47;;;;;;;5.70;4.80;;;;;;;3.56;90.13;99662.28;4844178;29;20061;-72
2021/10/17 03:37:14;;;;;;;2.08;1.98;;;;;;;3.55;90.01;99658.00;4828630;29;20121;-72
2021/10/17 03:39:40;;;;;;;6.43;5.03;;;;;;;3.48;90.60;99653.06;4844086;29;20062;-72
2021/10/17 03:42:06;;;;;;;3.00;2.80;;;;;;;3.49;90.56;99665.94;4843632;29;20424;-72
2021/10/17 03:44:32;;;;;;;2.03;1.75;;;;;;;3.51;90.06;99669.31;4844036;29;20057;-72
2021/10/17 03:46:59;;;;;;;5.82;4.40;;;;;;;3.53;90.33;99662.34;4843723;29;20050;-73
2021/10/17 03:49:27;;;;;;;4.85;4.53;;;;;;;3.58;90.54;99668.25;4814375;29;20101;-72
2021/10/17 03:51:54;;;;;;;5.03;4.70;;;;;;;3.59;90.06;99672.53;4843499;29;20057;-73
2021/10/17 03:54:20;;;;;;;8.30;5.18;;;;;;;3.55;89.94;99664.91;4860519;29;20049;-71
2021/10/17 03:56:46;;;;;;;2.83;2.28;;;;;;;3.51;90.13;99663.31;4844164;29;20058;-71
2021/10/17 03:59:15;;;;;;;4.15;3.85;;;;;;;3.52;90.51;99665.00;4843573;29;20499;-71
2021/10/17 04:01:44;;;;;;;5.00;4.03;;;;;;;3.52;90.26;99665.84;4843358;29;20596;-71
2021/10/17 04:04:10;;;;;;;2.67;2.63;;;;;;;3.57;90.17;99661.38;4828098;29;20114;-71
2021/10/17 04:06:37;;;;;;;3.03;2.83;;;;;;;3.58;89.69;99659.66;4843646;29;20437;-72
2021/10/17 04:09:09;;;;;;;2.22;2.22;;;;;;;3.62;89.68;99661.25;4843254;29;20136;-70
2021/10/17 04:11:35;;;;;;;2.78;2.63;;;;;;;3.59;89.28;99667.38;4843565;29;20427;-72
2021/10/17 04:14:01;;;;;;;1.85;1.67;;;;;;;3.53;89.37;99662.34;4859907;29;20090;-72
2021/10/17 04:16:28;;;;;;;7.68;5.25;;;;;;;3.59;89.11;99656.19;4843506;29;20633;-72
2021/10/17 04:18:53;;;;;;;3.78;3.60;;;;;;;3.67;88.88;99664.53;4832258;29;20068;-73
2021/10/17 04:21:20;;;;;;;2.95;2.60;;;;;;;3.70;89.45;99661.03;4824817;29;20050;-73
2021/10/17 04:23:46;;;;;;;5.45;4.60;;;;;;;3.70;88.79;99654.13;4832160;29;20061;-73
2021/10/17 04:26:12;;;;;;;2.10;2.08;;;;;;;3.77;88.76;99662.53;4809783;29;20134;-73
2021/10/17 04:28:44;;;;;;;3.63;3.42;;;;;;;3.91;88.10;99663.81;4840117;29;20068;-72
2021/10/17 04:31:10;;;;;;;2.65;2.42;;;;;;;4.35;86.09;99658.97;4841192;29;20141;-73
2021/10/17 04:33:36;;;;;;;3.85;2.67;;;;;;;4.68;84.19;99665.56;4839954;29;20190;-72
2021/10/17 04:36:03;;;;;;;3.70;2.67;;;;;;;4.85;83.55;99663.25;4826621;29;20057;-72
2021/10/17 04:38:29;;;;;;;2.70;2.60;;;;;;;5.01;82.80;99660.97;4827622;29;20057;-72
2021/10/17 04:40:55;;;;;;;2.13;2.05;;;;;;;5.27;81.65;99662.66;4842479;29;20053;-75
2021/10/17 04:43:21;;;;;;;1.65;1.65;;;;;;;4.98;81.99;99667.09;4827366;29;20563;-72
2021/10/17 04:45:47;;;;;;;3.15;2.92;;;;;;;5.07;82.11;99666.78;4827706;29;20049;-72
2021/10/17 04:48:13;;;;;;;2.22;2.13;;;;;;;4.64;83.80;99658.84;4827039;29;20100;-72
2021/10/17 04:50:39;;;;;;;2.25;2.17;;;;;;;4.62;83.52;99673.53;4859515;29;20076;-72
2021/10/17 04:53:05;;;;;;;2.47;2.35;;;;;;;4.59;83.92;99663.31;4859233;29;20093;-72
2021/10/17 04:55:32;;;;;;;2.20;1.95;;;;;;;4.83;83.71;99672.81;4842704;29;20193;-73
2021/10/17 04:58:03;;;;;;;3.03;2.73;;;;;;;5.15;81.40;99654.41;4842463;29;20539;-73
2021/10/17 05:00:29;;;;;;;2.25;2.15;;;;;;;4.95;82.26;99650.84;4842267;29;20789;-72
2021/10/17 05:02:58;;;;;;;1.30;1.30;;;;;;;4.88;82.31;99654.53;4809468;29;20123;-72
2021/10/17 05:05:25;;;;;;;2.60;2.05;;;;;;;5.08;81.11;99652.94;4809353;29;20058;-71
2021/10/17 05:07:52;;;;;;;2.35;2.22;;;;;;;5.05;81.80;99662.56;4824167;29;20054;-73
2021/10/17 05:10:18;;;;;;;1.90;1.83;;;;;;;4.85;82.51;99659.81;4809050;29;20113;-73
2021/10/17 05:12:44;;;;;;;7.72;3.33;;;;;;;4.73;83.16;99645.59;4824341;29;20053;-72
2021/10/17 05:15:11;;;;;;;3.38;3.13;;;;;;;4.76;83.22;99655.81;4824625;29;20550;-72
2021/10/17 05:17:38;;;;;;;1.30;1.27;;;;;;;4.67;83.07;99659.59;4809217;29;20061;-72
2021/10/17 05:20:05;;;;;;;3.47;3.17;;;;;;;4.66;83.37;99665.63;4809201;29;20050;-72
2021/10/17 05:22:32;;;;;;;2.88;2.30;;;;;;;4.73;83.29;99664.53;4809025;29;20080;-72
2021/10/17 05:24:59;;;;;;;2.33;2.22;;;;;;;4.73;83.07;99661.94;4840231;29;20065;-71
2021/10/17 05:27:25;;;;;;;2.60;2.42;;;;;;;4.79;82.87;99671.22;4823857;29;20049;-73
2021/10/17 05:29:51;;;;;;;6.47;3.95;;;;;;;5.06;81.40;99662.50;4808921;29;20194;-73
2021/10/17 05:32:19;;;;;;;4.60;2.95;;;;;;;5.46;80.42;99669.69;4823745;29;20046;-74
2021/10/17 05:34:45;;;;;;;3.58;3.35;;;;;;;5.29;80.46;99660.84;4823631;29;20555;-73
2021/10/17 05:37:13;;;;;;;2.20;2.10;;;;;;;5.31;81.30;99666.78;4823350;29;20093;-72
2021/10/17 05:39:39;;;;;;;2.58;2.47;;;;;;;5.87;78.63;99665.53;4840001;29;20057;-73
2021/10/17 05:42:05;;;;;;;2.70;2.53;;;;;;;5.48;79.89;99667.03;4823600;29;20529;-73
2021/10/17 05:44:31;;;;;;;2.40;2.30;;;;;;;5.50;80.53;99668.66;4823758;29;20062;-73
2021/10/17 05:46:57;;;;;;;3.13;2.92;;;;;;;5.35;80.95;99663.19;4840034;29;20061;-73
2021/10/17 05:49:24;;;;;;;5.55;4.25;;;;;;;5.58;80.03;99663.19;4823419;29;20433;-74
2021/10/17 05:51:50;;;;;;;2.60;2.50;;;;;;;5.81;79.58;99659.72;4823711;29;20054;-72
2021/10/17 05:54:17;;;;;;;2.40;2.30;;;;;;;5.69;79.68;99672.22;4822741;29;20064;-73
2021/10/17 05:56:45;;;;;;;4.07;3.78;;;;;;;6.05;78.43;99661.41;4837636;29;20148;-76
2021/10/17 05:59:12;;;;;;;2.35;2.25;;;;;;;5.92;78.68;99661.03;4809260;29;20058;-72
2021/10/17 06:01:39;;;;;;;3.38;3.17;;;;;;;6.01;78.85;99659.81;4832333;29;20064;-74
2021/10/17 06:04:14;;;;;;;4.07;3.80;;;;;;;6.02;78.48;99666.69;4827521;29;20611;-72
2021/10/17 06:07:01;;;;;;;1.95;1.85;;;;;;;6.49;76.74;99667.38;4859687;29;20060;-74
2021/10/17 06:09:27;;;;;;;1.63;1.63;;;;;;;6.74;75.80;99666.28;4812493;29;20077;-73
2021/10/17 06:11:55;;;;;;;3.00;2.90;;;;;;;6.76;76.31;99664.47;4811401;29;20065;-74
2021/10/17 06:14:21;;;;;;;3.70;3.25;;;;;;;6.84;75.35;99668.50;4857753;29;20137;-73
2021/10/17 06:16:47;;;;;;;4.07;3.67;;;;;;;6.21;77.30;99663.31;4826204;29;20069;-73
2021/10/17 06:19:14;;;;;;;2.33;2.22;;;;;;;6.35;77.47;99667.09;4837180;29;20148;-73
2021/10/17 06:21:48;;;;;;;2.28;2.17;;;;;;;6.43;76.65;99665.03;4834245;29;20136;-74
2021/10/17 06:24:14;;;;;;;2.28;2.17;;;;;;;6.59;76.53;99661.75;4810922;29;20436;-73
2021/10/17 06:26:42;;;;;;;2.65;2.38;;;;;;;6.69;76.76;99672.56;4827541;29;20421;-74
2021/10/17 06:29:10;;;;;;;3.63;3.38;;;;;;;6.76;75.99;99661.03;4827233;29;20152;-72
2021/10/17 06:31:37;;;;;;;2.80;2.58;;;;;;;6.94;74.71;99655.03;4841144;29;20057;-75
2021/10/17 06:34:04;;;;;;;7.63;3.72;;;;;;;6.89;74.48;99664.78;4865793;29;20112;-74
2021/10/17 06:36:31;;;;;;;4.55;2.50;;;;;;;6.78;75.30;99667.84;4846545;29;20088;-74
2021/10/17 06:38:58;;;;;;;3.50;3.00;;;;;;;6.87;75.50;99674.41;4840419;29;20080;-73
2021/10/17 06:41:24;;;;;;;3.67;2.47;;;;;;;6.75;76.32;99662.78;4840596;29;20098;-75
2021/10/17 06:43:51;;;;;;;3.30;3.10;;;;;;;6.66;75.97;99654.53;4841975;29;20055;-75
2021/10/17 06:46:22;;;;;;;3.90;2.88;;;;;;;6.90;75.80;99666.50;4843471;29;20092;-72
2021/10/17 06:48:52;;;;;;;2.55;1.88;;;;;;;6.99;74.79;99666.09;4837954;29;20056;-75
2021/10/17 06:51:18;;;;;;;1.38;1.38;;;;;;;6.85;76.09;99671.00;4824680;29;20057;-76
2021/10/17 06:53:44;;;;;;;2.10;1.98;;;;;;;7.19;74.54;99668.66;4843255;29;20109;-76
2021/10/17 06:56:12;;;;;;;3.38;2.42;;;;;;;6.84;75.18;99664.13;4858371;29;20125;-75
2021/10/17 06:58:39;;;;;;;2.47;2.28;;;;;;;7.08;74.00;99663.09;4848137;29;20061;-74
2021/10/17 07:01:07;;;;;;;2.83;2.65;;;;;;;7.26;73.75;99644.09;4824877;29;20061;-75
2021/10/17 07:03:34;;;;;;;2.65;2.45;;;;;;;8.11;70.66;99657.47;4839889;29;20085;-75
2021/10/17 07:06:10;;;;;;;2.85;2.67;;;;;;;8.55;69.36;99657.91;4824529;29;20485;-74
2021/10/17 07:08:41;;;;;;;2.08;1.98;;;;;;;8.95;67.40;99648.94;4840504;29;20543;-75
2021/10/17 07:11:10;;;;;;;2.47;2.33;;;;;;;8.55;68.75;99657.91;4808225;29;20068;-75
2021/10/17 07:13:54;;;;;;;3.58;2.80;;;;;;;8.58;69.24;99668.16;4856656;29;20053;-74
2021/10/17 07:16:25;;;;;;;3.00;2.75;;;;;;;7.83;70.56;99665.72;4836409;29;20459;-75
2021/10/17 07:18:51;;;;;;;5.82;2.30;;;;;;;8.23;69.91;99652.53;4837730;29;20053;-74
2021/10/17 07:21:18;;;;;;;2.83;2.58;;;;;;;7.97;71.27;99668.53;4825606;29;20060;-78
2021/10/17 07:23:44;;;;;;;3.08;2.70;;;;;;;7.42;72.54;99646.84;4839687;29;20061;-75
2021/10/17 07:26:11;;;;;;;2.28;1.98;;;;;;;7.85;71.60;99674.31;4824214;29;20065;-76
2021/10/17 07:28:37;;;;;;;4.43;3.25;;;;;;;7.10;73.01;99669.03;4865034;29;20056;-75
2021/10/17 07:31:05;;;;;;;2.35;2.25;;;;;;;7.10;73.50;99663.84;4858085;29;20098;-76
2021/10/17 07:33:50;;;;;;;4.10;3.75;;;;;;;8.05;70.32;99674.19;4868567;29;20105;-75
2021/10/17 07:36:17;;;;;;;2.35;2.25;;;;;;;8.17;69.58;99664.97;4825148;29;20110;-76
2021/10/17 07:38:51;;;;;;;2.65;2.55;;;;;;;8.18;70.31;99666.66;4842707;29;20611;-76
2021/10/17 07:41:17;;;;;;;3.20;2.67;;;;;;;8.70;68.04;99660.59;4840004;29;20049;-76
2021/10/17 07:43:43;;;;;;;2.20;2.10;;;;;;;9.63;65.16;99663.53;4839880;29;20049;-75
2021/10/17 07:46:09;;;;;;;3.55;2.83;;;;;;;8.83;66.76;99663.44;4856316;29;20068;-75
2021/10/17 07:48:36;;;;;;;2.80;2.60;;;;;;;9.48;65.34;99659.16;4840062;29;20110;-75
2021/10/17 07:51:04;;;;;;;2.03;1.92;;;;;;;9.95;64.06;99665.22;4793817;29;20084;-76
2021/10/17 07:53:31;;;;;;;3.05;2.85;;;;;;;9.68;64.76;99661.53;4813343;29;20083;-74
2021/10/17 07:55:57;;;;;;;2.53;2.33;;;;;;;11.26;60.02;99664.53;4784034;29;20072;-76
2021/10/17 07:58:27;;;;;;;2.70;2.50;;;;;;;9.78;64.30;99667.94;4811592;29;20144;-74
2021/10/17 08:00:55;;;;;;;2.25;2.05;;;;;;;8.13;69.65;99674.69;4827750;29;20122;-74
2021/10/17 08:03:57;;;;;;;2.60;2.38;;;;;;;8.47;68.85;99679.13;4791135;29;20497;-75
2021/10/17 08:06:48;;;;;;;2.55;2.35;;;;;;;8.27;69.43;99669.66;4813267;29;20209;-75
2021/10/17 08:09:17;;;;;;;3.35;3.05;;;;;;;8.80;68.56;99676.63;4828062;29;20046;-75
2021/10/17 08:11:44;;;;;;;3.90;2.78;;;;;;;8.78;68.01;99657.63;4830686;29;20059;-76
2021/10/17 08:14:11;;;;;;;2.65;2.53;;;;;;;8.52;68.79;99664.13;4815229;29;20052;-78
2021/10/17 08:16:44;;;;;;;2.80;2.60;;;;;;;8.33;69.56;99677.19;4817422;29;20116;-81
2021/10/17 08:19:10;;;;;;;4.75;2.65;;;;;;;8.93;68.00;99671.63;4838211;29;20149;-80
2021/10/17 08:21:36;;;;;;;2.28;2.17;;;;;;;9.29;66.71;99686.16;4813643;29;20053;-78
2021/10/17 08:24:09;;;;;;;2.53;2.42;;;;;;;9.00;67.32;99689.44;4798967;29;20053;-78
2021/10/17 08:26:40;;;;;;;;;;;;;;;8.91;67.90;99689.91;4813897;29;20056;-79
2021/10/17 08:29:10;;;;;;;2.42;2.33;;;;;;;9.52;65.44;99690.16;4798299;29;19979;-80
2021/10/17 08:31:37;;;;;;;1.73;1.63;;;;;;;9.42;64.98;99673.38;4843384;29;20061;-80
2021/10/17 08:34:09;;;;;;;20.65;2.47;;;;;;;8.88;67.79;99684.88;4828130;29;20060;-77
2021/10/17 08:36:37;;;;;;;5.70;3.03;;;;;;;8.90;67.65;99672.59;4780033;29;20062;-79
2021/10/17 08:39:04;;;;;;;1.88;1.77;;;;;;;8.83;67.18;99692.06;4809327;29;20062;-77
2021/10/17 08:41:45;;;;;;;7.05;2.67;;;;;;;8.74;67.39;99684.72;4839390;29;20072;-78
2021/10/17 08:44:13;;;;;;;3.30;3.10;;;;;;;8.91;67.61;99679.50;4839848;29;20042;-77
2021/10/17 08:46:52;;;;;;;5.40;2.85;;;;;;;8.95;68.06;99685.41;4823901;29;20410;-76
2021/10/17 08:49:20;;;;;;;1.90;1.80;;;;;;;8.77;67.90;99676.75;4826222;29;20114;-78
2021/10/17 08:51:47;;;;;;;2.08;1.70;;;;;;;8.63;68.06;99687.88;4823642;29;20100;-78
2021/10/17 08:54:13;;;;;;;2.22;2.05;;;;;;;8.32;70.17;99685.06;4823062;29;20532;-80
2021/10/17 08:56:50;;;;;;;2.53;2.38;;;;;;;8.20;70.41;99681.28;4796300;29;20058;-78
2021/10/17 08:59:23;;;;;;;3.58;2.78;;;;;;;8.81;68.44;99686.09;4824517;29;20497;-77
2021/10/17 09:01:50;;;;;;;1.23;1.23;;;;;;;8.48;67.89;99673.00;4805820;29;20062;-78
2021/10/17 09:04:17;;;;;;;2.20;2.08;;;;;;;8.38;69.24;99681.34;4784614;29;20098;-79
2021/10/17 09:07:16;;;;;;;3.03;2.22;;;;;;;8.08;69.78;99681.84;4812873;29;20138;-77
2021/10/17 09:10:04;;;;;;;1.92;1.83;;;;;;;8.15;69.68;99692.78;4807077;29;20049;-77
2021/10/17 09:12:31;;;;;;;2.85;2.08;;;;;;;8.06;70.07;99698.44;4828613;29;20049;-78
2021/10/17 09:15:20;;;;;;;1.42;1.42;;;;;;;7.79;70.65;99697.94;4806601;29;20062;-77
2021/10/17 09:18:09;;;;;;;1.45;1.45;;;;;;;7.91;71.39;99697.41;4807463;29;20482;-75
2021/10/17 09:20:37;;;;;;;1.40;1.38;;;;;;;8.13;70.04;99692.88;4823091;29;20076;-75
2021/10/17 09:23:05;;;;;;;1.67;1.55;;;;;;;8.09;69.68;99687.88;4806017;29;20046;-75
2021/10/17 09:25:35;;;;;;;1.25;1.25;;;;;;;7.84;70.51;99704.66;4835488;29;20053;-75
2021/10/17 09:28:01;;;;;;;1.75;1.65;;;;;;;7.69;70.66;99691.53;4835755;29;20054;-75
2021/10/17 09:30:27;;;;;;;4.13;3.28;;;;;;;7.74;71.19;99702.53;4836872;29;20076;-76
2021/10/17 09:33:10;;;;;;;2.38;1.00;;;;;;;7.85;70.33;99700.28;4837417;29;20473;-75
2021/10/17 09:35:37;;;;;;;3.40;2.08;;;;;;;7.87;70.43;99711.44;4823460;29;20065;-75
2021/10/17 09:38:18;;;;;;;0.93;0.93;;;;;;;7.68;71.12;99708.00;4838443;29;20409;-74
2021/10/17 09:40:51;;;;;;;6.18;2.70;;;;;;;7.72;71.15;99704.38;4795137;29;20157;-75
2021/10/17 09:43:29;;;;;;;1.42;1.42;;;;;;;7.90;70.55;99708.69;4810768;29;20081;-76
2021/10/17 09:46:13;;;;;;;1.45;1.45;;;;;;;7.78;70.05;99696.28;4824951;29;20045;-75
2021/10/17 09:48:40;;;;;;;1.52;1.52;;;;;;;7.80;70.33;99697.91;4854133;29;20517;-76
2021/10/17 09:51:10;;;;;;;2.67;2.47;;;;;;;8.02;70.00;99700.31;4838943;29;20150;-76
2021/10/17 09:53:55;;;;;;;2.10;2.00;;;;;;;8.03;69.93;99703.78;4840320;29;20489;-75
2021/10/17 09:56:24;;;;;;;2.65;2.45;;;;;;;7.92;69.83;99706.06;4840103;29;20410;-75
2021/10/17 09:58:54;;;;;;;1.40;1.30;;;;;;;7.67;70.39;99706.31;4839827;29;20066;-76
2021/10/17 10:01:24;;;;;;;3.05;2.85;;;;;;;7.72;70.32;99699.16;4839497;29;20644;-75
2021/10/17 10:03:54;;;;;;;5.43;2.70;;;;;;;7.79;70.33;99706.59;4838972;29;20058;-75
2021/10/17 10:06:21;;;;;;;2.53;2.33;;;;;;;7.72;70.36;99693.97;4839610;29;20509;-76
2021/10/17 10:08:47;;;;;;;1.95;1.85;;;;;;;7.86;70.26;99708.00;4839844;29;20064;-73
2021/10/17 10:11:14;;;;;;;1.73;1.50;;;;;;;8.12;69.22;99698.97;4808246;29;20058;-76
2021/10/17 10:13:41;;;;;;;1.75;1.65;;;;;;;8.12;69.74;99700.72;4823169;29;20110;-76
2021/10/17 10:16:07;;;;;;;3.47;2.10;;;;;;;8.14;68.79;99694.56;4826052;29;20058;-75
2021/10/17 10:18:33;;;;;;;3.17;2.55;;;;;;;8.14;68.78;99697.19;4835836;29;20069;-76
2021/10/17 10:20:59;;;;;;;2.60;2.30;;;;;;;8.14;68.36;99711.94;4811436;29;20057;-75
2021/10/17 10:23:26;;;;;;;2.08;1.90;;;;;;;8.07;68.90;99690.56;4844490;29;20054;-75
2021/10/17 10:25:51;;;;;;;2.30;2.20;;;;;;;8.07;69.40;99693.16;4816860;29;20054;-75
2021/10/17 10:28:19;;;;;;;6.35;2.13;;;;;;;8.10;68.88;99695.63;4804350;29;20050;-75
2021/10/17 10:30:45;;;;;;;3.30;2.50;;;;;;;7.93;68.65;99686.91;4804817;29;20174;-74
2021/10/17 10:33:16;;;;;;;1.20;1.20;;;;;;;8.07;69.27;99697.53;4820261;29;20093;-76
2021/10/17 10:36:02;;;;;;;2.13;2.03;;;;;;;8.12;67.92;99675.59;4820566;29;20141;-75
2021/10/17 10:38:50;;;;;;;2.47;2.28;;;;;;;7.74;69.30;99686.94;4820485;29;20058;-75
2021/10/17 10:41:17;;;;;;;1.85;1.75;;;;;;;7.86;70.08;99696.75;4820316;29;20518;-74
2021/10/17 10:43:44;;;;;;;0.77;0.77;;;;;;;7.71;69.71;99692.28;4823479;29;20054;-74
2021/10/17 10:46:10;;;;;;;4.72;2.28;;;;;;;7.77;69.36;99698.03;4822007;29;20517;-76
2021/10/17 10:48:45;;;;;;;1.20;1.20;;;;;;;7.86;69.33;99696.75;4838389;29;20087;-74
2021/10/17 10:51:11;;;;;;;2.22;2.10;;;;;;;7.70;69.23;99698.38;4822049;29;20054;-74
2021/10/17 10:53:45;;;;;;;1.98;1.80;;;;;;;7.91;69.29;99694.81;4806775;29;20672;-75
2021/10/17 10:56:29;;;;;;;3.50;2.08;;;;;;;8.03;68.63;99685.59;4822180;29;20062;-74
2021/10/17 10:58:55;;;;;;;7.40;3.28;;;;;;;8.04;69.08;99684.66;4808755;29;20061;-74
2021/10/17 11:01:58;;;;;;;1.02;1.02;;;;;;;7.82;69.35;99684.81;4837899;29;20054;-73
2021/10/17 11:04:38;;;;;;;1.27;1.17;;;;;;;8.05;69.06;99686.38;4838865;29;20054;-74
2021/10/17 11:07:27;;;;;;;1.13;1.10;;;;;;;7.72;69.04;99684.41;4838774;29;20110;-74
2021/10/17 11:09:55;;;;;;;2.65;2.55;;;;;;;7.92;68.65;99673.06;4829061;29;20148;-76
2021/10/17 11:12:46;;;;;;;3.10;2.90;;;;;;;7.79;68.80;99678.00;4807424;29;20054;-74
2021/10/17 11:15:17;;;;;;;1.80;1.70;;;;;;;7.78;68.50;99678.09;4838522;29;20145;-74
2021/10/17 11:18:00;;;;;;;1.25;1.25;;;;;;;7.94;68.81;99678.22;4837809;29;20133;-75
2021/10/17 11:20:28;;;;;;;2.30;2.17;;;;;;;8.09;68.01;99670.53;4838320;29;20054;-74
2021/10/17 11:22:55;;;;;;;2.58;1.70;;;;;;;7.88;68.52;99654.19;4822378;29;20050;-74
2021/10/17 11:25:21;;;;;;;3.03;2.78;;;;;;;7.89;68.38;99665.44;4838362;29;20572;-74
2021/10/17 11:27:48;;;;;;;1.50;1.45;;;;;;;7.99;68.52;99677.09;4807607;29;20140;-76
2021/10/17 11:30:30;;;;;;;1.30;1.30;;;;;;;8.13;68.34;99674.69;4792153;29;20653;-75
2021/10/17 11:32:57;;;;;;;5.32;2.42;;;;;;;8.28;67.73;99667.91;4824427;29;20085;-75
2021/10/17 11:35:26;;;;;;;22.75;1.75;;;;;;;8.19;67.81;99669.19;4810708;29;20053;-75
2021/10/17 11:37:55;;;;;;;;;;;;;;;8.26;67.12;99664.53;4842666;29;20541;-75
2021/10/17 11:40:23;;;;;;;1.55;1.52;;;;;;;8.31;67.42;99660.81;4825367;29;19925;-76
2021/10/17 11:42:52;;;;;;;4.47;1.90;;;;;;;8.54;66.85;99669.28;4811302;29;20533;-75
2021/10/17 11:45:23;;;;;;;1.65;1.60;;;;;;;8.60;66.51;99662.00;4796091;29;20064;-76
2021/10/17 11:47:50;;;;;;;2.40;1.45;;;;;;;8.62;67.19;99659.31;4842149;29;20061;-76
2021/10/17 11:50:21;;;;;;;2.05;1.70;;;;;;;8.46;67.01;99650.56;4841896;29;20058;-77